Green Stars — V7VZ5 — position and weather

sailwx.info

Track history (hours):
 
Tides and Currents Weather Stations Pressure Air Temp Water Temp Dewpoint Dewpoint Depression Visibility Wind Speed Wind Dir Waves Ship Positions

Green Stars

Last reported at 2014-Aug-23 01:15 UTC. Time now 2014-Aug-23 05:35 UTC.
Position N 40°53' E 028°35'.

Length 182 m; draft 10.1 m.

Type: Tanker. MMSI: 538004247.

Date/timePositionNaut miles runAvg speedWind from/ knotsBaromVisibWave heightAir tempDewpointWater temp
2014-Aug-23 01:15N 40°53' E 028°35'1013.3
2014-Aug-23 00:31N 40°55' E 028°48'3 1.0
2014-Aug-22 21:14N 40°56' E 028°52'3 5.0
2014-Aug-22 20:32N 40°57' E 028°56'34 3.1
2014-Aug-22 09:33N 41°29' E 029°11'0 0.3
2014-Aug-22 08:30N 41°29' E 029°10'0 0.3
2014-Aug-22 07:33N 41°29' E 029°10'  
2014-Aug-16 16:33N 45°08' E 036°35'7 6.6
2014-Aug-16 15:33N 45°01' E 036°32'0 0.2
2014-Aug-16 14:31N 45°02' E 036°32'0 0.0
2014-Aug-16 13:31N 45°02' E 036°32'0 0.0
2014-Aug-16 12:19N 45°02' E 036°32'0 0.0
2014-Aug-16 11:25N 45°02' E 036°32'0 0.0
2014-Aug-16 10:31N 45°02' E 036°32'0 0.0
2014-Aug-16 09:28N 45°01' E 036°32'0 0.0
2014-Aug-16 07:07N 45°01' E 036°32'0 0.0
2014-Aug-16 06:28N 45°01' E 036°32'0 0.0
2014-Aug-16 05:22N 45°01' E 036°32'0 0.0
2014-Aug-15 21:31N 45°01' E 036°32'0 0.0
2014-Aug-15 20:31N 45°01' E 036°32'0 0.0
2014-Aug-15 19:31N 45°01' E 036°32'0 0.0
2014-Aug-15 18:31N 45°01' E 036°32'0 0.0
2014-Aug-15 17:10N 45°01' E 036°32'0 0.0
2014-Aug-15 16:19N 45°01' E 036°32'0 0.0
2014-Aug-15 15:31N 45°01' E 036°32'0 0.0
2014-Aug-15 14:31N 45°01' E 036°32'0 0.0
2014-Aug-15 13:31N 45°01' E 036°32'0 0.0
2014-Aug-15 12:31N 45°01' E 036°32'0 0.0
2014-Aug-15 11:31N 45°01' E 036°32'0 0.0
2014-Aug-15 10:31N 45°01' E 036°32'0 0.0
2014-Aug-15 09:31N 45°01' E 036°32'0 0.0
2014-Aug-15 08:31N 45°01' E 036°32'0 0.0
2014-Aug-15 07:31N 45°01' E 036°32'0 0.0
2014-Aug-15 06:31N 45°01' E 036°32'0 0.0
2014-Aug-14 08:31N 45°01' E 036°32'0 0.0
2014-Aug-14 07:31N 45°01' E 036°32'0 0.0
2014-Aug-13 22:31N 45°01' E 036°32'0 0.0
2014-Aug-13 21:31N 45°01' E 036°32'0 0.0
2014-Aug-13 20:31N 45°01' E 036°32'0 0.0
2014-Aug-13 18:31N 45°01' E 036°32'0 0.0
2014-Aug-13 16:28N 45°01' E 036°32'0 0.1
2014-Aug-13 15:04N 45°01' E 036°32'0 0.0
2014-Aug-13 14:31N 45°01' E 036°32'0 0.0
2014-Aug-13 13:22N 45°01' E 036°32'0 0.0
2014-Aug-13 12:22N 45°01' E 036°32'1 1.3
2014-Aug-13 11:33N 45°00' E 036°32'4112.2
2014-Aug-13 08:12N 44°20' E 036°32'711.1
2014-Aug-13 07:33N 44°13' E 036°27'  
Track history (hours):
 
Tides and Currents Weather Stations Pressure Air Temp Water Temp Dewpoint Dewpoint Depression Visibility Wind Speed Wind Dir Waves Ship Positions

Green Stars

Last reported at 2014-Aug-23 01:15 UTC. Time now 2014-Aug-23 05:35 UTC.
Position N 40°53' E 028°35'.

Length 182 m; draft 10.1 m.

Type: Tanker. MMSI: 538004247.

Date/timePositionNaut miles runAvg speedWind from/ knotsBaromVisibWave heightAir tempDewpointWater temp
2014-Aug-23 01:15N 40°53' E 028°35'1013.3
2014-Aug-23 00:31N 40°55' E 028°48'3 1.0
2014-Aug-22 21:14N 40°56' E 028°52'3 5.0
2014-Aug-22 20:32N 40°57' E 028°56'34 3.1
2014-Aug-22 09:33N 41°29' E 029°11'0 0.3
2014-Aug-22 08:30N 41°29' E 029°10'0 0.3
2014-Aug-22 07:33N 41°29' E 029°10'  
2014-Aug-16 16:33N 45°08' E 036°35'7 6.6
2014-Aug-16 15:33N 45°01' E 036°32'0 0.2
2014-Aug-16 14:31N 45°02' E 036°32'0 0.0
2014-Aug-16 13:31N 45°02' E 036°32'0 0.0
2014-Aug-16 12:19N 45°02' E 036°32'0 0.0
2014-Aug-16 11:25N 45°02' E 036°32'0 0.0
2014-Aug-16 10:31N 45°02' E 036°32'0 0.0
2014-Aug-16 09:28N 45°01' E 036°32'0 0.0
2014-Aug-16 07:07N 45°01' E 036°32'0 0.0
2014-Aug-16 06:28N 45°01' E 036°32'0 0.0
2014-Aug-16 05:22N 45°01' E 036°32'0 0.0
2014-Aug-15 21:31N 45°01' E 036°32'0 0.0
2014-Aug-15 20:31N 45°01' E 036°32'0 0.0
2014-Aug-15 19:31N 45°01' E 036°32'0 0.0
2014-Aug-15 18:31N 45°01' E 036°32'0 0.0
2014-Aug-15 17:10N 45°01' E 036°32'0 0.0
2014-Aug-15 16:19N 45°01' E 036°32'0 0.0
2014-Aug-15 15:31N 45°01' E 036°32'0 0.0
2014-Aug-15 14:31N 45°01' E 036°32'0 0.0
2014-Aug-15 13:31N 45°01' E 036°32'0 0.0
2014-Aug-15 12:31N 45°01' E 036°32'0 0.0
2014-Aug-15 11:31N 45°01' E 036°32'0 0.0
2014-Aug-15 10:31N 45°01' E 036°32'0 0.0
2014-Aug-15 09:31N 45°01' E 036°32'0 0.0
2014-Aug-15 08:31N 45°01' E 036°32'0 0.0
2014-Aug-15 07:31N 45°01' E 036°32'0 0.0
2014-Aug-15 06:31N 45°01' E 036°32'0 0.0
2014-Aug-14 08:31N 45°01' E 036°32'0 0.0
2014-Aug-14 07:31N 45°01' E 036°32'0 0.0
2014-Aug-13 22:31N 45°01' E 036°32'0 0.0
2014-Aug-13 21:31N 45°01' E 036°32'0 0.0
2014-Aug-13 20:31N 45°01' E 036°32'0 0.0
2014-Aug-13 18:31N 45°01' E 036°32'0 0.0
2014-Aug-13 16:28N 45°01' E 036°32'0 0.1
2014-Aug-13 15:04N 45°01' E 036°32'0 0.0
2014-Aug-13 14:31N 45°01' E 036°32'0 0.0
2014-Aug-13 13:22N 45°01' E 036°32'0 0.0
2014-Aug-13 12:22N 45°01' E 036°32'1 1.3
2014-Aug-13 11:33N 45°00' E 036°32'4112.2
2014-Aug-13 08:12N 44°20' E 036°32'711.1
2014-Aug-13 07:33N 44°13' E 036°27'  

Dump ship's entire track history